RYR6ZU EIDW-LZKZ
Flight info
| Callsign | RYR6ZU |
|---|---|
| Flight time | 2h 28m |
| Altitude | 37000 |
| Route | ENDEQ3J ENDEQ Q36 ALAVA Z195 MALUD UL975 WAL M16 DOLAS L603 LAMSO DCT NOMKA DCT OMELO DCT UPLAV DCT MAKAL DCT TAKOS |
| Aircraft | B38M/M-SADE3FGILRWYSB1/LB1 |
Departure
| Time | 2026-05-06 13:18 |
|---|---|
| Airport | Dublin Airport (EIDW) |
Arrival
| Time | 2026-05-06 15:46 |
|---|---|
| Airport | Košice International Airport (LZKZ) |
| Time | Latitude | Longitude | Altitude | Speed | Heading |
|---|---|---|---|---|---|
| 2026-05-06 13:08 | 53.43054 | -6.25325 | 213 ft | 0 kts | 156° |
| 2026-05-06 13:10 | 53.43045 | -6.25318 | 213 ft | 4 kts | 156° |
| 2026-05-06 13:11 | 53.43038 | -6.25312 | 222 ft | 6 kts | 156° |
| 2026-05-06 13:11 | 53.42978 | -6.25268 | 217 ft | 12 kts | 155° |
| 2026-05-06 13:11 | 53.42899 | -6.25211 | 215 ft | 13 kts | 156° |
| 2026-05-06 13:11 | 53.42822 | -6.25203 | 219 ft | 12 kts | 222° |
| 2026-05-06 13:12 | 53.42762 | -6.25308 | 213 ft | 14 kts | 225° |
| 2026-05-06 13:12 | 53.42688 | -6.25434 | 217 ft | 17 kts | 225° |
| 2026-05-06 13:12 | 53.42599 | -6.25584 | 220 ft | 19 kts | 226° |
| 2026-05-06 13:12 | 53.42501 | -6.25755 | 217 ft | 21 kts | 226° |
| 2026-05-06 13:13 | 53.42396 | -6.25934 | 214 ft | 21 kts | 225° |
| 2026-05-06 13:13 | 53.42292 | -6.26119 | 213 ft | 22 kts | 240° |
| 2026-05-06 13:13 | 53.42271 | -6.26377 | 213 ft | 23 kts | 274° |
| 2026-05-06 13:13 | 53.42287 | -6.26657 | 213 ft | 25 kts | 275° |
| 2026-05-06 13:14 | 53.42304 | -6.26957 | 213 ft | 26 kts | 275° |
| 2026-05-06 13:14 | 53.42318 | -6.27233 | 213 ft | 24 kts | 275° |
| 2026-05-06 13:14 | 53.42333 | -6.27525 | 213 ft | 26 kts | 275° |
| 2026-05-06 13:14 | 53.42352 | -6.27833 | 221 ft | 27 kts | 276° |
| 2026-05-06 13:15 | 53.42369 | -6.28157 | 213 ft | 29 kts | 275° |
| 2026-05-06 13:15 | 53.42387 | -6.28497 | 213 ft | 30 kts | 275° |
| 2026-05-06 13:15 | 53.42400 | -6.28731 | 213 ft | 31 kts | 275° |
| 2026-05-06 13:15 | 53.42411 | -6.28950 | 215 ft | 11 kts | 269° |
| 2026-05-06 13:16 | 53.42373 | -6.29066 | 217 ft | 13 kts | 208° |
| 2026-05-06 13:16 | 53.42278 | -6.29071 | 212 ft | 13 kts | 178° |
| 2026-05-06 13:16 | 53.42242 | -6.28999 | 212 ft | 0 kts | 96° |
| 2026-05-06 13:16 | 53.42242 | -6.28993 | 212 ft | 0 kts | 96° |
| 2026-05-06 13:17 | 53.42239 | -6.28953 | 217 ft | 16 kts | 96° |
| 2026-05-06 13:17 | 53.42205 | -6.28320 | 217 ft | 91 kts | 95° |
| 2026-05-06 13:17 | 53.42125 | -6.26896 | 218 ft | 151 kts | 95° |
| 2026-05-06 13:17 | 53.42018 | -6.25033 | 692 ft | 165 kts | 95° |
| 2026-05-06 13:18 | 53.41907 | -6.23081 | 1384 ft | 174 kts | 95° |
| 2026-05-06 13:18 | 53.41797 | -6.21049 | 2160 ft | 181 kts | 95° |
| 2026-05-06 13:18 | 53.41676 | -6.18815 | 2719 ft | 203 kts | 95° |
| 2026-05-06 13:18 | 53.41543 | -6.16370 | 3447 ft | 215 kts | 96° |
| 2026-05-06 13:19 | 53.41401 | -6.13813 | 4181 ft | 228 kts | 96° |
| 2026-05-06 13:19 | 53.41248 | -6.11049 | 4746 ft | 248 kts | 96° |
| 2026-05-06 13:19 | 53.41083 | -6.08081 | 5310 ft | 266 kts | 97° |
| 2026-05-06 13:19 | 53.40921 | -6.04956 | 6197 ft | 269 kts | 94° |
| 2026-05-06 13:20 | 53.41021 | -6.01788 | 6989 ft | 277 kts | 84° |
| 2026-05-06 13:20 | 53.41253 | -5.98560 | 7807 ft | 281 kts | 83° |
| 2026-05-06 13:20 | 53.41489 | -5.95269 | 8620 ft | 287 kts | 83° |
| 2026-05-06 13:20 | 53.41728 | -5.91922 | 9434 ft | 292 kts | 83° |
| 2026-05-06 13:21 | 53.41971 | -5.88511 | 10201 ft | 298 kts | 82° |
| 2026-05-06 13:21 | 53.42221 | -5.84977 | 10643 ft | 315 kts | 82° |
| 2026-05-06 13:21 | 53.42486 | -5.81221 | 10976 ft | 334 kts | 83° |
| 2026-05-06 13:21 | 53.42753 | -5.77265 | 11468 ft | 347 kts | 83° |
| 2026-05-06 13:22 | 53.43028 | -5.73190 | 12142 ft | 355 kts | 83° |
| 2026-05-06 13:22 | 53.43305 | -5.69057 | 12951 ft | 359 kts | 83° |
| 2026-05-06 13:22 | 53.43585 | -5.64876 | 13686 ft | 364 kts | 83° |
| 2026-05-06 13:22 | 53.43867 | -5.60620 | 14374 ft | 369 kts | 83° |
| 2026-05-06 13:23 | 53.44151 | -5.56330 | 15057 ft | 372 kts | 83° |
| 2026-05-06 13:23 | 53.44436 | -5.52000 | 15729 ft | 376 kts | 83° |
| 2026-05-06 13:23 | 53.44512 | -5.47595 | 16317 ft | 381 kts | 92° |
| 2026-05-06 13:23 | 53.44401 | -5.43138 | 16969 ft | 384 kts | 92° |
| 2026-05-06 13:24 | 53.44292 | -5.38643 | 17599 ft | 388 kts | 92° |
| 2026-05-06 13:24 | 53.44179 | -5.34095 | 18222 ft | 391 kts | 92° |
| 2026-05-06 13:24 | 53.44064 | -5.29526 | 18758 ft | 394 kts | 92° |
| 2026-05-06 13:24 | 53.43967 | -5.24909 | 19271 ft | 398 kts | 91° |
| 2026-05-06 13:25 | 53.43896 | -5.20255 | 19783 ft | 401 kts | 91° |
| 2026-05-06 13:25 | 53.43821 | -5.15568 | 20293 ft | 404 kts | 91° |
| 2026-05-06 13:25 | 53.43745 | -5.10846 | 20780 ft | 407 kts | 91° |
| 2026-05-06 13:25 | 53.43666 | -5.06083 | 21275 ft | 410 kts | 91° |
| 2026-05-06 13:26 | 53.43585 | -5.01282 | 21769 ft | 413 kts | 91° |
| 2026-05-06 13:26 | 53.43501 | -4.96446 | 22260 ft | 416 kts | 91° |
| 2026-05-06 13:26 | 53.43415 | -4.91574 | 22743 ft | 420 kts | 91° |
| 2026-05-06 13:26 | 53.43326 | -4.86669 | 23219 ft | 423 kts | 91° |
| 2026-05-06 13:27 | 53.43234 | -4.81718 | 23691 ft | 426 kts | 91° |
| 2026-05-06 13:27 | 53.43139 | -4.76736 | 24102 ft | 429 kts | 91° |
| 2026-05-06 13:27 | 53.43043 | -4.71734 | 24532 ft | 431 kts | 91° |
| 2026-05-06 13:27 | 53.42943 | -4.66693 | 24953 ft | 433 kts | 91° |
| 2026-05-06 13:28 | 53.42840 | -4.61635 | 25377 ft | 436 kts | 91° |
| 2026-05-06 13:28 | 53.42735 | -4.56543 | 25774 ft | 439 kts | 91° |
| 2026-05-06 13:28 | 53.42627 | -4.51417 | 26188 ft | 441 kts | 91° |
| 2026-05-06 13:28 | 53.42516 | -4.46273 | 26592 ft | 443 kts | 91° |
| 2026-05-06 13:29 | 53.42403 | -4.41099 | 26999 ft | 445 kts | 91° |
| 2026-05-06 13:29 | 53.42286 | -4.35890 | 27392 ft | 448 kts | 91° |
| 2026-05-06 13:29 | 53.42167 | -4.30657 | 27780 ft | 450 kts | 92° |
| 2026-05-06 13:29 | 53.42045 | -4.25411 | 28157 ft | 453 kts | 92° |
| 2026-05-06 13:30 | 53.41919 | -4.20107 | 28537 ft | 455 kts | 92° |
| 2026-05-06 13:30 | 53.41791 | -4.14790 | 28890 ft | 457 kts | 92° |
| 2026-05-06 13:30 | 53.41659 | -4.09455 | 29255 ft | 460 kts | 92° |
| 2026-05-06 13:30 | 53.41524 | -4.04075 | 29540 ft | 463 kts | 92° |
| 2026-05-06 13:31 | 53.41387 | -3.98664 | 29885 ft | 466 kts | 92° |
| 2026-05-06 13:31 | 53.41246 | -3.93234 | 30202 ft | 468 kts | 92° |
| 2026-05-06 13:31 | 53.41102 | -3.87779 | 30476 ft | 470 kts | 92° |
| 2026-05-06 13:31 | 53.40954 | -3.82293 | 30761 ft | 472 kts | 92° |
| 2026-05-06 13:32 | 53.40804 | -3.76781 | 31031 ft | 474 kts | 92° |
| 2026-05-06 13:32 | 53.40650 | -3.71251 | 31301 ft | 476 kts | 92° |
| 2026-05-06 13:32 | 53.40493 | -3.65694 | 31581 ft | 478 kts | 92° |
| 2026-05-06 13:32 | 53.40333 | -3.60123 | 31883 ft | 479 kts | 92° |
| 2026-05-06 13:33 | 53.40170 | -3.54553 | 32239 ft | 479 kts | 93° |
| 2026-05-06 13:33 | 53.40005 | -3.48989 | 32597 ft | 478 kts | 93° |
| 2026-05-06 13:33 | 53.39838 | -3.43432 | 32961 ft | 477 kts | 93° |
| 2026-05-06 13:33 | 53.39668 | -3.37875 | 33331 ft | 477 kts | 93° |
| 2026-05-06 13:34 | 53.39498 | -3.32408 | 33693 ft | 476 kts | 93° |
| 2026-05-06 13:34 | 53.39324 | -3.26875 | 34048 ft | 475 kts | 93° |
| 2026-05-06 13:34 | 53.39147 | -3.21347 | 34335 ft | 475 kts | 93° |
| 2026-05-06 13:34 | 53.38965 | -3.15749 | 34606 ft | 475 kts | 93° |
| 2026-05-06 13:35 | 53.38786 | -3.10299 | 34854 ft | 475 kts | 93° |
| 2026-05-06 13:35 | 53.38601 | -3.04770 | 35116 ft | 476 kts | 94° |
| 2026-05-06 13:35 | 53.38415 | -2.99257 | 35346 ft | 476 kts | 94° |
| 2026-05-06 13:35 | 53.38225 | -2.93719 | 35599 ft | 477 kts | 94° |
| 2026-05-06 13:36 | 53.38033 | -2.88174 | 35853 ft | 477 kts | 94° |
| 2026-05-06 13:36 | 53.37837 | -2.82633 | 36100 ft | 477 kts | 94° |
| 2026-05-06 13:36 | 53.37640 | -2.77103 | 36330 ft | 477 kts | 94° |
| 2026-05-06 13:36 | 53.37440 | -2.71583 | 36566 ft | 477 kts | 94° |
| 2026-05-06 13:37 | 53.37237 | -2.66032 | 36807 ft | 477 kts | 94° |
| 2026-05-06 13:37 | 53.37031 | -2.60484 | 37026 ft | 478 kts | 94° |
| 2026-05-06 13:37 | 53.36822 | -2.54927 | 37071 ft | 479 kts | 94° |
| 2026-05-06 13:38 | 53.36397 | -2.43824 | 37042 ft | 477 kts | 94° |
| 2026-05-06 13:38 | 53.35972 | -2.32964 | 37052 ft | 478 kts | 94° |
| 2026-05-06 13:39 | 53.35245 | -2.21920 | 37057 ft | 477 kts | 100° |
| 2026-05-06 13:39 | 53.34144 | -2.10960 | 37047 ft | 477 kts | 100° |
| 2026-05-06 13:40 | 53.33016 | -2.00014 | 37043 ft | 477 kts | 101° |
| 2026-05-06 13:40 | 53.31878 | -1.89088 | 37041 ft | 477 kts | 101° |
| 2026-05-06 13:41 | 53.30731 | -1.78173 | 37038 ft | 477 kts | 101° |
| 2026-05-06 13:41 | 53.29573 | -1.67255 | 37037 ft | 477 kts | 101° |
| 2026-05-06 13:42 | 53.28405 | -1.56350 | 37045 ft | 477 kts | 101° |
| 2026-05-06 13:42 | 53.27227 | -1.45450 | 37038 ft | 476 kts | 101° |
| 2026-05-06 13:43 | 53.26042 | -1.34577 | 37041 ft | 476 kts | 102° |
| 2026-05-06 13:43 | 53.24847 | -1.23715 | 37045 ft | 476 kts | 102° |
| 2026-05-06 13:44 | 53.23643 | -1.12862 | 37040 ft | 475 kts | 102° |
| 2026-05-06 13:44 | 53.22431 | -1.02028 | 37039 ft | 475 kts | 102° |
| 2026-05-06 13:45 | 53.21209 | -0.91201 | 37047 ft | 475 kts | 102° |
| 2026-05-06 13:45 | 53.19355 | -0.74962 | 37047 ft | 475 kts | 102° |
| 2026-05-06 13:46 | 53.18107 | -0.64145 | 37049 ft | 475 kts | 102° |
| 2026-05-06 13:46 | 53.16849 | -0.53334 | 37049 ft | 475 kts | 102° |
| 2026-05-06 13:47 | 53.15582 | -0.42531 | 37047 ft | 475 kts | 102° |
| 2026-05-06 13:47 | 53.14305 | -0.31733 | 37020 ft | 475 kts | 102° |
| 2026-05-06 13:48 | 53.13027 | -0.21019 | 37022 ft | 475 kts | 103° |
| 2026-05-06 13:48 | 53.11731 | -0.10230 | 37022 ft | 475 kts | 103° |
| 2026-05-06 13:49 | 53.10425 | 0.00544 | 37005 ft | 475 kts | 103° |
| 2026-05-06 13:49 | 53.09108 | 0.11325 | 37007 ft | 476 kts | 103° |
| 2026-05-06 13:50 | 53.07780 | 0.22106 | 36994 ft | 476 kts | 103° |
| 2026-05-06 13:50 | 53.06443 | 0.32876 | 36998 ft | 476 kts | 103° |
| 2026-05-06 13:51 | 53.05097 | 0.43639 | 36980 ft | 476 kts | 103° |
| 2026-05-06 13:51 | 53.03740 | 0.54398 | 36982 ft | 475 kts | 103° |
| 2026-05-06 13:52 | 53.02380 | 0.65101 | 36983 ft | 474 kts | 103° |
| 2026-05-06 13:52 | 53.01010 | 0.75799 | 36985 ft | 474 kts | 103° |
| 2026-05-06 13:53 | 52.99631 | 0.86498 | 36985 ft | 474 kts | 103° |
| 2026-05-06 13:53 | 52.98247 | 0.97178 | 36984 ft | 473 kts | 103° |
| 2026-05-06 13:54 | 52.97008 | 1.07907 | 36987 ft | 473 kts | 102° |
| 2026-05-06 13:54 | 52.95779 | 1.18540 | 36986 ft | 473 kts | 102° |
| 2026-05-06 13:55 | 52.94529 | 1.29260 | 36986 ft | 473 kts | 102° |
| 2026-05-06 13:55 | 52.93262 | 1.40031 | 36988 ft | 473 kts | 102° |
| 2026-05-06 13:56 | 52.92002 | 1.50648 | 36982 ft | 473 kts | 102° |
| 2026-05-06 13:56 | 52.90717 | 1.61392 | 36987 ft | 472 kts | 102° |
| 2026-05-06 13:57 | 52.89442 | 1.71969 | 36988 ft | 472 kts | 103° |
| 2026-05-06 13:57 | 52.88149 | 1.82614 | 36981 ft | 472 kts | 103° |
| 2026-05-06 13:58 | 52.86847 | 1.93242 | 36980 ft | 471 kts | 103° |
| 2026-05-06 13:58 | 52.85535 | 2.03872 | 36972 ft | 471 kts | 103° |
| 2026-05-06 13:59 | 52.84217 | 2.14464 | 36975 ft | 469 kts | 103° |
| 2026-05-06 13:59 | 52.82893 | 2.25027 | 36977 ft | 469 kts | 103° |
| 2026-05-06 14:00 | 52.81559 | 2.35583 | 36976 ft | 469 kts | 103° |
| 2026-05-06 14:00 | 52.80446 | 2.44354 | 36972 ft | 469 kts | 103° |
| 2026-05-06 14:01 | 52.79095 | 2.54897 | 36969 ft | 469 kts | 103° |
| 2026-05-06 14:01 | 52.77737 | 2.65442 | 36961 ft | 469 kts | 103° |
| 2026-05-06 14:02 | 52.76370 | 2.75977 | 36961 ft | 469 kts | 104° |
| 2026-05-06 14:02 | 52.74994 | 2.86504 | 36956 ft | 469 kts | 104° |
| 2026-05-06 14:03 | 52.73607 | 2.97034 | 36964 ft | 469 kts | 104° |
| 2026-05-06 14:03 | 52.72184 | 3.07537 | 36940 ft | 470 kts | 104° |
| 2026-05-06 14:04 | 52.70751 | 3.18039 | 36941 ft | 469 kts | 104° |
| 2026-05-06 14:04 | 52.69310 | 3.28535 | 36939 ft | 469 kts | 104° |
| 2026-05-06 14:05 | 52.67858 | 3.39024 | 36954 ft | 469 kts | 104° |
| 2026-05-06 14:05 | 52.66400 | 3.49496 | 36945 ft | 469 kts | 105° |
| 2026-05-06 14:06 | 52.64932 | 3.59966 | 36951 ft | 469 kts | 105° |
| 2026-05-06 14:06 | 52.63456 | 3.70410 | 36944 ft | 469 kts | 105° |
| 2026-05-06 14:07 | 52.61969 | 3.80857 | 36911 ft | 468 kts | 105° |
| 2026-05-06 14:07 | 52.60478 | 3.91279 | 36932 ft | 468 kts | 105° |
| 2026-05-06 14:08 | 52.58974 | 4.01706 | 36916 ft | 468 kts | 105° |
| 2026-05-06 14:08 | 52.57467 | 4.12087 | 36912 ft | 466 kts | 105° |
| 2026-05-06 14:09 | 52.56067 | 4.22497 | 36911 ft | 466 kts | 104° |
| 2026-05-06 14:09 | 52.54725 | 4.32923 | 36909 ft | 466 kts | 104° |
| 2026-05-06 14:10 | 52.53366 | 4.43328 | 36899 ft | 466 kts | 104° |
| 2026-05-06 14:10 | 52.52001 | 4.53703 | 36901 ft | 466 kts | 104° |
| 2026-05-06 14:11 | 52.50623 | 4.64104 | 36893 ft | 466 kts | 104° |
| 2026-05-06 14:11 | 52.49236 | 4.74493 | 36885 ft | 466 kts | 104° |
| 2026-05-06 14:12 | 52.47841 | 4.84873 | 36887 ft | 466 kts | 104° |
| 2026-05-06 14:12 | 52.46435 | 4.95253 | 36885 ft | 466 kts | 104° |
| 2026-05-06 14:13 | 52.45021 | 5.05618 | 36879 ft | 465 kts | 104° |
| 2026-05-06 14:13 | 52.43607 | 5.15919 | 36882 ft | 465 kts | 105° |
| 2026-05-06 14:14 | 52.42180 | 5.26240 | 36883 ft | 465 kts | 105° |
| 2026-05-06 14:14 | 52.40743 | 5.36558 | 36884 ft | 465 kts | 105° |
| 2026-05-06 14:15 | 52.39332 | 5.46622 | 36871 ft | 465 kts | 105° |
| 2026-05-06 14:15 | 52.37878 | 5.56923 | 36884 ft | 465 kts | 105° |
| 2026-05-06 14:16 | 52.36413 | 5.67233 | 36881 ft | 465 kts | 105° |
| 2026-05-06 14:16 | 52.34939 | 5.77535 | 36883 ft | 465 kts | 105° |
| 2026-05-06 14:17 | 52.33460 | 5.87803 | 36881 ft | 465 kts | 105° |
| 2026-05-06 14:17 | 52.31974 | 5.98047 | 36878 ft | 465 kts | 105° |
| 2026-05-06 14:18 | 52.30477 | 6.08304 | 36880 ft | 464 kts | 105° |
| 2026-05-06 14:18 | 52.28972 | 6.18553 | 36894 ft | 464 kts | 106° |
| 2026-05-06 14:19 | 52.27456 | 6.28796 | 36874 ft | 464 kts | 106° |
| 2026-05-06 14:19 | 52.25933 | 6.39029 | 36882 ft | 464 kts | 106° |
| 2026-05-06 14:20 | 52.24401 | 6.49254 | 36876 ft | 464 kts | 106° |
| 2026-05-06 14:20 | 52.22856 | 6.59497 | 36874 ft | 465 kts | 106° |
| 2026-05-06 14:21 | 52.21304 | 6.69729 | 36875 ft | 465 kts | 106° |
| 2026-05-06 14:21 | 52.19747 | 6.79920 | 36872 ft | 465 kts | 106° |
| 2026-05-06 14:22 | 52.18183 | 6.90094 | 36879 ft | 465 kts | 106° |
| 2026-05-06 14:22 | 52.16598 | 7.00342 | 36865 ft | 466 kts | 107° |
| 2026-05-06 14:23 | 52.15006 | 7.10569 | 36859 ft | 466 kts | 107° |
| 2026-05-06 14:23 | 52.13406 | 7.20783 | 36859 ft | 466 kts | 107° |
| 2026-05-06 14:24 | 52.11796 | 7.31000 | 36856 ft | 466 kts | 107° |
| 2026-05-06 14:24 | 52.10183 | 7.41171 | 36848 ft | 466 kts | 107° |
| 2026-05-06 14:25 | 52.08553 | 7.51388 | 36855 ft | 467 kts | 107° |
| 2026-05-06 14:25 | 52.06920 | 7.61556 | 36856 ft | 467 kts | 107° |
| 2026-05-06 14:26 | 52.05273 | 7.71752 | 36860 ft | 467 kts | 107° |
| 2026-05-06 14:26 | 52.03621 | 7.81918 | 36855 ft | 466 kts | 107° |
| 2026-05-06 14:27 | 52.01957 | 7.92100 | 36834 ft | 467 kts | 108° |
| 2026-05-06 14:27 | 52.00276 | 8.02316 | 36839 ft | 468 kts | 108° |
| 2026-05-06 14:28 | 51.98591 | 8.12504 | 36832 ft | 467 kts | 108° |
| 2026-05-06 14:28 | 51.96897 | 8.22679 | 36832 ft | 467 kts | 108° |
| 2026-05-06 14:29 | 51.95194 | 8.32852 | 36817 ft | 467 kts | 108° |
| 2026-05-06 14:29 | 51.93481 | 8.43024 | 36825 ft | 469 kts | 108° |
| 2026-05-06 14:30 | 51.91758 | 8.53193 | 36821 ft | 468 kts | 108° |
| 2026-05-06 14:30 | 51.90024 | 8.63368 | 36822 ft | 468 kts | 108° |
| 2026-05-06 14:31 | 51.88282 | 8.73533 | 36821 ft | 468 kts | 109° |
| 2026-05-06 14:31 | 51.86532 | 8.83682 | 36804 ft | 469 kts | 109° |
| 2026-05-06 14:32 | 51.84779 | 8.93793 | 36810 ft | 470 kts | 109° |
| 2026-05-06 14:32 | 51.83006 | 9.03960 | 36798 ft | 470 kts | 109° |
| 2026-05-06 14:33 | 51.81225 | 9.14113 | 36799 ft | 470 kts | 109° |
| 2026-05-06 14:33 | 51.79434 | 9.24265 | 36795 ft | 470 kts | 109° |
| 2026-05-06 14:34 | 51.77636 | 9.34403 | 36793 ft | 470 kts | 109° |
| 2026-05-06 14:34 | 51.75833 | 9.44510 | 36796 ft | 470 kts | 109° |
| 2026-05-06 14:35 | 51.74017 | 9.54631 | 36783 ft | 469 kts | 109° |
| 2026-05-06 14:35 | 51.72196 | 9.64726 | 36792 ft | 470 kts | 109° |
| 2026-05-06 14:36 | 51.70359 | 9.74853 | 36769 ft | 469 kts | 110° |
| 2026-05-06 14:36 | 51.68524 | 9.84915 | 36778 ft | 468 kts | 110° |
| 2026-05-06 14:37 | 51.66695 | 9.94888 | 36773 ft | 468 kts | 110° |
| 2026-05-06 14:37 | 51.64842 | 10.04935 | 36770 ft | 468 kts | 110° |
| 2026-05-06 14:38 | 51.62980 | 10.14977 | 36773 ft | 468 kts | 110° |
| 2026-05-06 14:38 | 51.61110 | 10.25009 | 36772 ft | 468 kts | 110° |
| 2026-05-06 14:39 | 51.59238 | 10.35001 | 36767 ft | 467 kts | 110° |
| 2026-05-06 14:39 | 51.57362 | 10.44956 | 36766 ft | 467 kts | 111° |
| 2026-05-06 14:40 | 51.55472 | 10.54933 | 36766 ft | 466 kts | 111° |
| 2026-05-06 14:40 | 51.53575 | 10.64894 | 36746 ft | 466 kts | 111° |
| 2026-05-06 14:41 | 51.51666 | 10.74869 | 36771 ft | 468 kts | 111° |
| 2026-05-06 14:41 | 51.49746 | 10.84843 | 36768 ft | 468 kts | 111° |
| 2026-05-06 14:42 | 51.48131 | 10.93195 | 36772 ft | 468 kts | 111° |
| 2026-05-06 14:42 | 51.46200 | 11.03138 | 36764 ft | 467 kts | 111° |
| 2026-05-06 14:43 | 51.44262 | 11.13052 | 36746 ft | 468 kts | 111° |
| 2026-05-06 14:43 | 51.42306 | 11.23022 | 36769 ft | 469 kts | 111° |
| 2026-05-06 14:44 | 51.40341 | 11.32978 | 36767 ft | 469 kts | 111° |
| 2026-05-06 14:45 | 51.37385 | 11.47863 | 36766 ft | 469 kts | 111° |
| 2026-05-06 14:45 | 51.35401 | 11.57784 | 36746 ft | 469 kts | 112° |
| 2026-05-06 14:46 | 51.33404 | 11.67726 | 36764 ft | 470 kts | 112° |
| 2026-05-06 14:46 | 51.31402 | 11.77643 | 36764 ft | 470 kts | 112° |
| 2026-05-06 14:47 | 51.29400 | 11.87506 | 36764 ft | 470 kts | 112° |
| 2026-05-06 14:47 | 51.27364 | 11.97488 | 36754 ft | 469 kts | 112° |
| 2026-05-06 14:48 | 51.25335 | 12.07386 | 36747 ft | 469 kts | 113° |
| 2026-05-06 14:48 | 51.23297 | 12.17280 | 36759 ft | 469 kts | 113° |
| 2026-05-06 14:49 | 51.21265 | 12.27092 | 36765 ft | 469 kts | 113° |
| 2026-05-06 14:49 | 51.19213 | 12.36956 | 36768 ft | 469 kts | 113° |
| 2026-05-06 14:50 | 51.17153 | 12.46808 | 36755 ft | 468 kts | 113° |
| 2026-05-06 14:50 | 51.15084 | 12.56657 | 36769 ft | 469 kts | 113° |
| 2026-05-06 14:51 | 51.13008 | 12.66488 | 36772 ft | 469 kts | 113° |
| 2026-05-06 14:51 | 51.10923 | 12.76317 | 36741 ft | 469 kts | 113° |
| 2026-05-06 14:52 | 51.08864 | 12.85973 | 36768 ft | 469 kts | 113° |
| 2026-05-06 14:52 | 51.06779 | 12.95707 | 36763 ft | 469 kts | 113° |
| 2026-05-06 14:53 | 51.04668 | 13.05513 | 36764 ft | 469 kts | 113° |
| 2026-05-06 14:53 | 51.02564 | 13.15245 | 36763 ft | 468 kts | 114° |
| 2026-05-06 14:54 | 51.00440 | 13.25019 | 36762 ft | 468 kts | 114° |
| 2026-05-06 14:54 | 50.98305 | 13.34794 | 36744 ft | 469 kts | 114° |
| 2026-05-06 14:55 | 50.96165 | 13.44553 | 36773 ft | 470 kts | 114° |
| 2026-05-06 14:55 | 50.94020 | 13.54283 | 36770 ft | 469 kts | 114° |
| 2026-05-06 14:56 | 50.91857 | 13.64051 | 36771 ft | 470 kts | 114° |
| 2026-05-06 14:56 | 50.89687 | 13.73807 | 36767 ft | 469 kts | 114° |
| 2026-05-06 14:57 | 50.87509 | 13.83548 | 36773 ft | 469 kts | 114° |
| 2026-05-06 14:57 | 50.85322 | 13.93287 | 36766 ft | 469 kts | 114° |
| 2026-05-06 14:58 | 50.82895 | 14.02828 | 36775 ft | 464 kts | 121° |
| 2026-05-06 14:58 | 50.80005 | 14.11969 | 36759 ft | 465 kts | 121° |
| 2026-05-06 14:59 | 50.77093 | 14.21087 | 36746 ft | 465 kts | 122° |
| 2026-05-06 14:59 | 50.74180 | 14.30172 | 36774 ft | 466 kts | 122° |
| 2026-05-06 15:00 | 50.71238 | 14.39185 | 36756 ft | 463 kts | 128° |
| 2026-05-06 15:00 | 50.67602 | 14.47508 | 36749 ft | 461 kts | 128° |
| 2026-05-06 15:01 | 50.64428 | 14.56358 | 36770 ft | 465 kts | 125° |
| 2026-05-06 15:01 | 50.61242 | 14.65216 | 36763 ft | 465 kts | 125° |
| 2026-05-06 15:02 | 50.58024 | 14.74063 | 36771 ft | 465 kts | 126° |
| 2026-05-06 15:02 | 50.54802 | 14.82890 | 36768 ft | 465 kts | 126° |
| 2026-05-06 15:03 | 50.51595 | 14.91644 | 36772 ft | 465 kts | 126° |
| 2026-05-06 15:03 | 50.48339 | 15.00502 | 36751 ft | 465 kts | 126° |
| 2026-05-06 15:04 | 50.45098 | 15.09288 | 36774 ft | 466 kts | 126° |
| 2026-05-06 15:04 | 50.41869 | 15.18013 | 36775 ft | 465 kts | 126° |
| 2026-05-06 15:05 | 50.38614 | 15.26779 | 36777 ft | 465 kts | 126° |
| 2026-05-06 15:05 | 50.35352 | 15.35534 | 36782 ft | 465 kts | 126° |
| 2026-05-06 15:06 | 50.32087 | 15.44266 | 36776 ft | 464 kts | 126° |
| 2026-05-06 15:06 | 50.28826 | 15.52961 | 36763 ft | 464 kts | 126° |
| 2026-05-06 15:07 | 50.25560 | 15.61638 | 36771 ft | 463 kts | 126° |
| 2026-05-06 15:07 | 50.22287 | 15.70302 | 36781 ft | 463 kts | 126° |
| 2026-05-06 15:08 | 50.19008 | 15.78956 | 36757 ft | 463 kts | 127° |
| 2026-05-06 15:08 | 50.15716 | 15.87615 | 36774 ft | 465 kts | 127° |
| 2026-05-06 15:09 | 50.12410 | 15.96283 | 36783 ft | 465 kts | 127° |
| 2026-05-06 15:09 | 50.09107 | 16.04913 | 36782 ft | 465 kts | 127° |
| 2026-05-06 15:10 | 50.05794 | 16.13541 | 36784 ft | 464 kts | 127° |
| 2026-05-06 15:10 | 50.02469 | 16.22171 | 36775 ft | 467 kts | 127° |
| 2026-05-06 15:11 | 49.99115 | 16.30847 | 36791 ft | 469 kts | 127° |
| 2026-05-06 15:11 | 49.95751 | 16.39521 | 36784 ft | 468 kts | 127° |
| 2026-05-06 15:12 | 49.92384 | 16.48174 | 36798 ft | 469 kts | 127° |
| 2026-05-06 15:12 | 49.89009 | 16.56820 | 36766 ft | 468 kts | 127° |
| 2026-05-06 15:13 | 49.85628 | 16.65449 | 36793 ft | 469 kts | 127° |
| 2026-05-06 15:13 | 49.82237 | 16.74078 | 36794 ft | 468 kts | 127° |
| 2026-05-06 15:14 | 49.78846 | 16.82678 | 36792 ft | 468 kts | 127° |
| 2026-05-06 15:14 | 49.75446 | 16.91274 | 36798 ft | 468 kts | 127° |
| 2026-05-06 15:15 | 49.72034 | 16.99869 | 36800 ft | 470 kts | 127° |
| 2026-05-06 15:15 | 49.68611 | 17.08466 | 36797 ft | 470 kts | 127° |
| 2026-05-06 15:16 | 49.65180 | 17.17057 | 36798 ft | 470 kts | 127° |
| 2026-05-06 15:16 | 49.61742 | 17.25633 | 36805 ft | 470 kts | 127° |
| 2026-05-06 15:17 | 49.58311 | 17.34169 | 36792 ft | 470 kts | 127° |
| 2026-05-06 15:17 | 49.54855 | 17.42734 | 36786 ft | 471 kts | 127° |
| 2026-05-06 15:18 | 49.51418 | 17.51227 | 36807 ft | 471 kts | 127° |
| 2026-05-06 15:18 | 49.47946 | 17.59777 | 36807 ft | 471 kts | 128° |
| 2026-05-06 15:19 | 49.44474 | 17.68303 | 36810 ft | 471 kts | 128° |
| 2026-05-06 15:19 | 49.41320 | 17.77143 | 36824 ft | 476 kts | 119° |
| 2026-05-06 15:20 | 49.38495 | 17.86349 | 36816 ft | 476 kts | 121° |
| 2026-05-06 15:20 | 49.35593 | 17.95478 | 36532 ft | 476 kts | 121° |
| 2026-05-06 15:20 | 49.34137 | 18.00036 | 36264 ft | 476 kts | 121° |
| 2026-05-06 15:21 | 49.32676 | 18.04594 | 35989 ft | 477 kts | 121° |
| 2026-05-06 15:21 | 49.31220 | 18.09133 | 35715 ft | 478 kts | 121° |
| 2026-05-06 15:21 | 49.29750 | 18.13702 | 35437 ft | 480 kts | 121° |
| 2026-05-06 15:21 | 49.28271 | 18.18295 | 35183 ft | 481 kts | 121° |
| 2026-05-06 15:22 | 49.26785 | 18.22899 | 34917 ft | 483 kts | 121° |
| 2026-05-06 15:22 | 49.25295 | 18.27507 | 34807 ft | 483 kts | 121° |
| 2026-05-06 15:22 | 49.23800 | 18.32123 | 34822 ft | 485 kts | 121° |
| 2026-05-06 15:23 | 49.20791 | 18.41388 | 34834 ft | 486 kts | 121° |
| 2026-05-06 15:23 | 49.17819 | 18.50507 | 34860 ft | 472 kts | 121° |
| 2026-05-06 15:24 | 49.14852 | 18.59571 | 34839 ft | 482 kts | 121° |
| 2026-05-06 15:24 | 49.11817 | 18.68815 | 34828 ft | 489 kts | 121° |
| 2026-05-06 15:25 | 49.08756 | 18.78102 | 34845 ft | 491 kts | 121° |
| 2026-05-06 15:25 | 49.05687 | 18.87382 | 34838 ft | 491 kts | 121° |
| 2026-05-06 15:26 | 49.03127 | 18.95096 | 34868 ft | 491 kts | 121° |
| 2026-05-06 15:26 | 49.01054 | 19.04904 | 34668 ft | 491 kts | 94° |
| 2026-05-06 15:26 | 49.00936 | 19.10070 | 34073 ft | 489 kts | 97° |
| 2026-05-06 15:27 | 49.00520 | 19.15216 | 33128 ft | 492 kts | 98° |
| 2026-05-06 15:27 | 49.00128 | 19.20408 | 32138 ft | 498 kts | 98° |
| 2026-05-06 15:27 | 48.99747 | 19.25672 | 31112 ft | 501 kts | 98° |
| 2026-05-06 15:27 | 48.99373 | 19.30950 | 30183 ft | 502 kts | 98° |
| 2026-05-06 15:28 | 48.99004 | 19.36217 | 29440 ft | 497 kts | 99° |
| 2026-05-06 15:28 | 48.98641 | 19.41422 | 28700 ft | 492 kts | 99° |
| 2026-05-06 15:28 | 48.98279 | 19.46558 | 27981 ft | 480 kts | 99° |
| 2026-05-06 15:28 | 48.97927 | 19.51550 | 27099 ft | 474 kts | 99° |
| 2026-05-06 15:29 | 48.97568 | 19.56551 | 26185 ft | 476 kts | 98° |
| 2026-05-06 15:29 | 48.97206 | 19.61564 | 25379 ft | 476 kts | 98° |
| 2026-05-06 15:29 | 48.96852 | 19.66490 | 24715 ft | 463 kts | 98° |
| 2026-05-06 15:29 | 48.96509 | 19.71233 | 24059 ft | 448 kts | 98° |
| 2026-05-06 15:30 | 48.96174 | 19.75856 | 23285 ft | 437 kts | 99° |
| 2026-05-06 15:30 | 48.95838 | 19.80413 | 22284 ft | 431 kts | 99° |
| 2026-05-06 15:30 | 48.95505 | 19.84916 | 21358 ft | 425 kts | 99° |
| 2026-05-06 15:30 | 48.95176 | 19.89348 | 20789 ft | 420 kts | 99° |
| 2026-05-06 15:31 | 48.94847 | 19.93755 | 20212 ft | 418 kts | 99° |
| 2026-05-06 15:31 | 48.94522 | 19.98105 | 19660 ft | 406 kts | 99° |
| 2026-05-06 15:31 | 48.94206 | 20.02314 | 19120 ft | 395 kts | 100° |
| 2026-05-06 15:32 | 48.93578 | 20.10554 | 18019 ft | 397 kts | 100° |
| 2026-05-06 15:32 | 48.93258 | 20.14742 | 17407 ft | 398 kts | 99° |
| 2026-05-06 15:32 | 48.92939 | 20.18891 | 16804 ft | 390 kts | 99° |
| 2026-05-06 15:32 | 48.92628 | 20.22927 | 16226 ft | 379 kts | 99° |
| 2026-05-06 15:33 | 48.92322 | 20.26871 | 15556 ft | 373 kts | 99° |
| 2026-05-06 15:33 | 48.92023 | 20.30715 | 14919 ft | 368 kts | 99° |
| 2026-05-06 15:33 | 48.91724 | 20.34523 | 14310 ft | 364 kts | 98° |
| 2026-05-06 15:33 | 48.91422 | 20.38354 | 13704 ft | 368 kts | 98° |
| 2026-05-06 15:34 | 48.91114 | 20.42237 | 12976 ft | 374 kts | 98° |
| 2026-05-06 15:34 | 48.90800 | 20.46185 | 12292 ft | 375 kts | 98° |
| 2026-05-06 15:34 | 48.90490 | 20.50069 | 11703 ft | 365 kts | 98° |
| 2026-05-06 15:34 | 48.90189 | 20.53834 | 11196 ft | 354 kts | 99° |
| 2026-05-06 15:35 | 48.89896 | 20.57483 | 10803 ft | 341 kts | 99° |
| 2026-05-06 15:35 | 48.89614 | 20.60986 | 10444 ft | 328 kts | 99° |
| 2026-05-06 15:35 | 48.89341 | 20.64372 | 10083 ft | 318 kts | 99° |
| 2026-05-06 15:35 | 48.89074 | 20.67656 | 9704 ft | 309 kts | 99° |
| 2026-05-06 15:36 | 48.88811 | 20.70869 | 9216 ft | 305 kts | 99° |
| 2026-05-06 15:36 | 48.88552 | 20.74042 | 8706 ft | 302 kts | 100° |
| 2026-05-06 15:36 | 48.88293 | 20.77190 | 8267 ft | 298 kts | 101° |
| 2026-05-06 15:36 | 48.88036 | 20.80299 | 7982 ft | 293 kts | 100° |
| 2026-05-06 15:37 | 48.87789 | 20.83292 | 7732 ft | 279 kts | 101° |
| 2026-05-06 15:37 | 48.87551 | 20.86144 | 7537 ft | 274 kts | 101° |
| 2026-05-06 15:37 | 48.87309 | 20.89022 | 7274 ft | 277 kts | 102° |
| 2026-05-06 15:37 | 48.87064 | 20.91954 | 6864 ft | 283 kts | 101° |
| 2026-05-06 15:38 | 48.86816 | 20.94921 | 6418 ft | 283 kts | 102° |
| 2026-05-06 15:38 | 48.86573 | 20.97867 | 5995 ft | 277 kts | 102° |
| 2026-05-06 15:38 | 48.86331 | 21.00710 | 5807 ft | 268 kts | 102° |
| 2026-05-06 15:38 | 48.86103 | 21.03362 | 5723 ft | 257 kts | 102° |
| 2026-05-06 15:39 | 48.85879 | 21.06003 | 5606 ft | 248 kts | 103° |
| 2026-05-06 15:39 | 48.85662 | 21.08568 | 5540 ft | 243 kts | 101° |
| 2026-05-06 15:39 | 48.85550 | 21.11122 | 5343 ft | 242 kts | 98° |
| 2026-05-06 15:39 | 48.85459 | 21.13692 | 5093 ft | 246 kts | 98° |
| 2026-05-06 15:40 | 48.85365 | 21.16276 | 4821 ft | 243 kts | 99° |
| 2026-05-06 15:40 | 48.85264 | 21.18798 | 4482 ft | 235 kts | 99° |
| 2026-05-06 15:40 | 48.85014 | 21.21158 | 4209 ft | 220 kts | 109° |
| 2026-05-06 15:40 | 48.84672 | 21.23381 | 3892 ft | 213 kts | 108° |
| 2026-05-06 15:41 | 48.84353 | 21.25520 | 3609 ft | 206 kts | 108° |
| 2026-05-06 15:41 | 48.83958 | 21.27554 | 3330 ft | 194 kts | 127° |
| 2026-05-06 15:41 | 48.83034 | 21.28853 | 3119 ft | 173 kts | 162° |
| 2026-05-06 15:41 | 48.81916 | 21.29127 | 2971 ft | 158 kts | 188° |
| 2026-05-06 15:42 | 48.80825 | 21.28890 | 2862 ft | 159 kts | 192° |
| 2026-05-06 15:42 | 48.79725 | 21.28602 | 2837 ft | 162 kts | 194° |
| 2026-05-06 15:42 | 48.78619 | 21.28281 | 2794 ft | 162 kts | 195° |
| 2026-05-06 15:42 | 48.77521 | 21.27941 | 2698 ft | 163 kts | 195° |
| 2026-05-06 15:43 | 48.76413 | 21.27585 | 2565 ft | 162 kts | 194° |
| 2026-05-06 15:43 | 48.75319 | 21.27224 | 2364 ft | 161 kts | 195° |
| 2026-05-06 15:43 | 48.74259 | 21.26870 | 2136 ft | 148 kts | 195° |
| 2026-05-06 15:43 | 48.73288 | 21.26550 | 1877 ft | 138 kts | 194° |
| 2026-05-06 15:44 | 48.72361 | 21.26232 | 1641 ft | 137 kts | 194° |
| 2026-05-06 15:44 | 48.71435 | 21.25902 | 1478 ft | 137 kts | 189° |
| 2026-05-06 15:44 | 48.70505 | 21.25577 | 1303 ft | 138 kts | 186° |
| 2026-05-06 15:44 | 48.69569 | 21.25243 | 1136 ft | 138 kts | 189° |
| 2026-05-06 15:45 | 48.68627 | 21.24928 | 964 ft | 138 kts | 192° |
| 2026-05-06 15:45 | 48.67705 | 21.24605 | 807 ft | 137 kts | 192° |
| 2026-05-06 15:45 | 48.66851 | 21.24309 | 763 ft | 101 kts | 193° |
| 2026-05-06 15:45 | 48.66345 | 21.24134 | 759 ft | 57 kts | 192° |
| 2026-05-06 15:46 | 48.66100 | 21.24049 | 757 ft | 24 kts | 192° |
| 2026-05-06 15:46 | 48.66009 | 21.24033 | 756 ft | 8 kts | 207° |
| 2026-05-06 15:46 | 48.66008 | 21.23998 | 757 ft | 2 kts | 339° |
| 2026-05-06 15:46 | 48.66028 | 21.24008 | 756 ft | 6 kts | 21° |
| 2026-05-06 15:47 | 48.66098 | 21.24047 | 756 ft | 15 kts | 17° |
| 2026-05-06 15:47 | 48.66213 | 21.24089 | 758 ft | 19 kts | 13° |
| 2026-05-06 15:47 | 48.66344 | 21.24133 | 759 ft | 21 kts | 12° |
| 2026-05-06 15:47 | 48.66517 | 21.24192 | 759 ft | 30 kts | 12° |
| 2026-05-06 15:48 | 48.66734 | 21.24267 | 762 ft | 33 kts | 13° |
| 2026-05-06 15:48 | 48.66951 | 21.24344 | 763 ft | 29 kts | 13° |
| 2026-05-06 15:48 | 48.67105 | 21.24398 | 762 ft | 13 kts | 13° |
| 2026-05-06 15:48 | 48.67187 | 21.24427 | 762 ft | 13 kts | 13° |
| 2026-05-06 15:49 | 48.67235 | 21.24372 | 756 ft | 11 kts | 285° |
| 2026-05-06 15:49 | 48.67252 | 21.24264 | 757 ft | 5 kts | 283° |
| 2026-05-06 15:49 | 48.67253 | 21.24259 | 757 ft | 0 kts | 283° |
| 2026-05-06 15:51 | 48.67253 | 21.24255 | 758 ft | 2 kts | 283° |
| 2026-05-06 15:51 | 48.67259 | 21.24218 | 760 ft | 6 kts | 283° |
| 2026-05-06 15:52 | 48.67271 | 21.24139 | 758 ft | 9 kts | 283° |
| 2026-05-06 15:52 | 48.67287 | 21.24031 | 760 ft | 11 kts | 283° |
| 2026-05-06 15:52 | 48.67300 | 21.23947 | 760 ft | 7 kts | 283° |
| 2026-05-06 15:52 | 48.67330 | 21.23901 | 759 ft | 3 kts | 314° |
| 2026-05-06 15:53 | 48.67331 | 21.23899 | 759 ft | 0 kts | 308° |
| 2026-05-06 15:53 | 48.67331 | 21.23898 | 759 ft | 0 kts | 303° |
| 2026-05-06 15:53 | 48.67331 | 21.23847 | 757 ft | 0 kts | 233° |